Terminal Aerodrome Forecast
Issued by NWS

Home | Current Version | Previous Version | Graphics & Text | Print | Product List | Glossary On
Versions: 1 2 3 4 5 6 7 8 9 10 11 12 13 14 15 16 17 18 19 20 21 22 23 24 25 26
000
FTUS45 KGGW 221100
TAFGDV
TAF
KGDV 221125Z 2212/2312 VRB03KT P6SM SCT180
     FM221500 14007KT P6SM SCT180
     FM230300 08009KT P6SM FEW220
      AMD LTD TO CLD VIS AND WIND=

USA.gov is the U.S. government's official web portal to all federal, state and local government web resources and services.